createdAt,value
2023-04-16T00:03:13.325Z,8.58
2023-04-16T00:06:30.097Z,8.46
2023-04-16T00:09:38.673Z,8.44
2023-04-16T00:12:53.162Z,8.44
2023-04-16T00:16:01.745Z,8.39
2023-04-16T00:19:10.349Z,8.40
2023-04-16T00:22:18.723Z,8.38
2023-04-16T00:25:27.113Z,8.32
2023-04-16T00:28:42.158Z,8.27
2023-04-16T00:31:44.217Z,8.20
2023-04-16T00:34:59.099Z,8.23
2023-04-16T00:38:07.116Z,8.19
2023-04-16T00:41:23.162Z,8.22
2023-04-16T00:44:31.765Z,8.18
2023-04-16T00:47:40.202Z,8.17
2023-04-16T00:50:48.941Z,8.12
2023-04-16T00:54:05.094Z,8.11
2023-04-16T00:57:14.681Z,8.06
2023-04-16T01:00:29.137Z,8.11
2023-04-16T01:03:53.279Z,8.03
2023-04-16T01:07:01.735Z,8.01
2023-04-16T01:10:16.126Z,7.93
2023-04-16T01:13:25.132Z,7.94
2023-04-16T01:16:33.744Z,7.96
2023-04-16T01:19:49.122Z,7.93
2023-04-16T01:22:57.110Z,7.88
2023-04-16T01:26:12.163Z,7.91
2023-04-16T01:29:20.703Z,7.88
2023-04-16T01:32:38.213Z,7.88
2023-04-16T01:35:46.700Z,7.91
2023-04-16T01:38:56.135Z,7.84
2023-04-16T01:42:12.102Z,7.85
2023-04-16T01:45:13.941Z,7.82
2023-04-16T01:48:29.114Z,7.74
2023-04-16T01:51:38.131Z,7.80
2023-04-16T01:54:46.769Z,7.77
2023-04-16T01:57:55.116Z,7.75
2023-04-16T02:01:11.146Z,7.72
2023-04-16T02:04:26.481Z,7.72
2023-04-16T02:07:35.118Z,7.71
2023-04-16T02:10:53.128Z,7.66
2023-04-16T02:14:09.125Z,7.60
2023-04-16T02:17:17.116Z,7.56
2023-04-16T02:20:32.119Z,7.53
2023-04-16T02:23:41.033Z,7.51
2023-04-16T02:26:56.109Z,7.45
2023-04-16T02:30:04.101Z,7.46
2023-04-16T02:33:13.289Z,7.43
2023-04-16T02:36:22.105Z,7.40
2023-04-16T02:39:30.714Z,7.43
2023-04-16T02:42:39.102Z,7.32
2023-04-16T02:45:47.804Z,7.41
2023-04-16T02:49:03.118Z,7.41
2023-04-16T02:52:13.279Z,7.39
2023-04-16T02:55:30.126Z,7.39
2023-04-16T02:58:38.101Z,7.34
2023-04-16T03:01:46.887Z,7.37
2023-04-16T03:05:02.154Z,7.35
2023-04-16T03:08:10.922Z,7.29
2023-04-16T03:11:26.112Z,7.22
2023-04-16T03:14:35.125Z,7.22
2023-04-16T03:17:50.138Z,7.25
2023-04-16T03:20:52.992Z,7.28
2023-04-16T03:24:08.100Z,7.28
2023-04-16T03:27:23.106Z,7.27
2023-04-16T03:30:31.890Z,7.27
2023-04-16T03:33:40.138Z,7.24
2023-04-16T03:36:48.711Z,7.23
2023-04-16T03:40:03.101Z,7.19
2023-04-16T03:43:11.933Z,7.15
2023-04-16T03:46:20.140Z,7.14
2023-04-16T03:49:35.123Z,7.13
2023-04-16T03:52:50.105Z,7.12
2023-04-16T03:55:52.498Z,7.12
2023-04-16T03:59:07.304Z,7.11
2023-04-16T04:02:15.916Z,7.08
2023-04-16T04:05:38.107Z,7.05
2023-04-16T04:08:47.133Z,7.07
2023-04-16T04:12:02.150Z,6.97
2023-04-16T04:15:11.154Z,6.99
2023-04-16T04:18:19.794Z,7.04
2023-04-16T04:21:36.106Z,7.04
2023-04-16T04:24:52.117Z,7.13
2023-04-16T04:28:00.673Z,7.19
2023-04-16T04:31:16.134Z,7.22
2023-04-16T04:34:31.155Z,7.26
2023-04-16T04:37:46.523Z,7.31
2023-04-16T04:40:55.119Z,7.27
2023-04-16T04:44:10.117Z,7.20
2023-04-16T04:47:18.716Z,7.22
2023-04-16T04:50:28.109Z,7.24
2023-04-16T04:53:36.789Z,7.26
2023-04-16T04:56:45.092Z,7.31
2023-04-16T05:00:00.143Z,7.35
2023-04-16T05:03:03.578Z,7.33
2023-04-16T05:06:25.717Z,7.34
2023-04-16T05:09:35.159Z,7.39
2023-04-16T05:12:43.841Z,7.35
2023-04-16T05:15:52.122Z,7.51
2023-04-16T05:19:07.272Z,7.55
2023-04-16T05:22:15.647Z,7.48
2023-04-16T05:25:24.152Z,7.51
2023-04-16T05:28:39.410Z,7.57
2023-04-16T05:31:48.151Z,7.61
2023-04-16T05:34:56.774Z,7.68
2023-04-16T05:38:11.107Z,7.72
2023-04-16T05:41:19.749Z,7.77
2023-04-16T05:44:28.133Z,7.85
2023-04-16T05:47:36.766Z,7.90
2023-04-16T05:50:45.090Z,7.91
2023-04-16T05:53:53.774Z,7.90
2023-04-16T05:57:02.363Z,7.93
2023-04-16T06:00:11.218Z,7.99
2023-04-16T06:03:26.228Z,7.93
2023-04-16T06:06:41.375Z,7.94
2023-04-16T06:09:56.098Z,8.06
2023-04-16T06:13:05.120Z,8.14
2023-04-16T06:16:13.808Z,8.17
2023-04-16T06:19:29.134Z,8.13
2023-04-16T06:22:31.164Z,8.24
2023-04-16T06:25:46.100Z,8.33
2023-04-16T06:28:48.200Z,8.44
2023-04-16T06:32:03.126Z,8.61
2023-04-16T06:35:12.127Z,8.65
2023-04-16T06:38:27.102Z,8.74
2023-04-16T06:41:36.544Z,8.80
2023-04-16T06:44:45.136Z,8.92
2023-04-16T06:48:00.308Z,9.05
2023-04-16T06:51:02.574Z,9.25
2023-04-16T06:54:17.092Z,9.36
2023-04-16T06:57:25.766Z,9.39
2023-04-16T07:00:34.142Z,9.51
2023-04-16T07:03:49.276Z,9.71
2023-04-16T07:07:01.526Z,9.71
2023-04-16T07:10:17.121Z,9.98
2023-04-16T07:13:25.796Z,10.20
2023-04-16T07:16:34.157Z,10.55
2023-04-16T07:19:49.116Z,10.85
2023-04-16T07:22:57.747Z,11.09
2023-04-16T07:26:06.111Z,11.34
2023-04-16T07:29:14.723Z,11.30
2023-04-16T07:32:23.167Z,11.20
2023-04-16T07:35:32.080Z,11.07
2023-04-16T07:38:41.125Z,11.12
2023-04-16T07:41:56.094Z,11.19
2023-04-16T07:45:05.166Z,11.34
2023-04-16T07:48:13.719Z,11.52
2023-04-16T07:51:30.112Z,11.72
2023-04-16T07:54:46.105Z,11.58
2023-04-16T07:57:54.112Z,11.48
2023-04-16T08:01:10.103Z,11.55
2023-04-16T08:04:18.271Z,11.81
2023-04-16T08:07:34.841Z,12.02
2023-04-16T08:10:50.192Z,12.32
2023-04-16T08:14:05.113Z,12.39
2023-04-16T08:17:07.078Z,12.46
2023-04-16T08:20:22.122Z,12.33
2023-04-16T08:23:37.097Z,12.52
2023-04-16T08:26:55.917Z,12.75
2023-04-16T08:30:08.756Z,13.00
2023-04-16T08:33:23.123Z,13.01
2023-04-16T08:36:38.438Z,13.37
2023-04-16T08:39:41.012Z,13.31
2023-04-16T08:43:01.125Z,13.47
2023-04-16T08:46:18.116Z,13.54
2023-04-16T08:49:20.188Z,13.57
2023-04-16T08:52:37.120Z,13.71
2023-04-16T08:55:57.100Z,13.42
2023-04-16T08:58:59.346Z,13.59
2023-04-16T09:02:18.306Z,13.84
2023-04-16T09:05:29.300Z,13.93
2023-04-16T09:08:52.118Z,13.92
2023-04-16T09:12:07.126Z,13.59
2023-04-16T09:15:13.278Z,13.41
2023-04-16T09:18:28.113Z,13.32
2023-04-16T09:21:44.099Z,13.32
2023-04-16T09:24:46.274Z,13.23
2023-04-16T09:28:01.145Z,13.15
2023-04-16T09:31:17.270Z,13.17
2023-04-16T09:34:32.117Z,13.10
2023-04-16T09:37:40.786Z,13.22
2023-04-16T09:41:12.114Z,13.28
2023-04-16T09:44:27.107Z,13.26
2023-04-16T09:47:51.159Z,13.34
2023-04-16T09:50:59.114Z,13.45
2023-04-16T09:54:08.339Z,13.71
2023-04-16T09:57:17.186Z,13.92
2023-04-16T10:00:25.773Z,14.19
2023-04-16T10:03:38.499Z,14.53
2023-04-16T10:07:04.334Z,14.91
2023-04-16T10:10:13.112Z,15.36
2023-04-16T10:13:28.150Z,15.51
2023-04-16T10:16:37.242Z,15.90
2023-04-16T10:19:53.144Z,15.80
2023-04-16T10:23:09.109Z,15.96
2023-04-16T10:26:18.224Z,15.85
2023-04-16T10:29:38.169Z,16.11
2023-04-16T10:32:54.168Z,16.31
2023-04-16T10:36:25.880Z,16.24
2023-04-16T10:39:43.136Z,16.45
2023-04-16T10:42:59.810Z,16.30
2023-04-16T10:46:38.189Z,16.48
2023-04-16T10:49:48.322Z,16.58
2023-04-16T10:53:35.117Z,16.42
2023-04-16T10:56:52.109Z,16.25
2023-04-16T11:00:07.153Z,16.84
2023-04-16T11:03:17.344Z,17.35
2023-04-16T11:06:32.281Z,17.21
2023-04-16T11:09:55.598Z,17.59
2023-04-16T11:13:13.115Z,17.71
2023-04-16T11:16:16.546Z,17.52
2023-04-16T11:19:31.162Z,17.64
2023-04-16T11:26:44.199Z,17.43
2023-04-16T11:34:06.128Z,17.24
2023-04-16T11:37:21.114Z,17.16
2023-04-16T11:40:37.124Z,16.81
2023-04-16T11:43:52.142Z,16.85
2023-04-16T11:47:06.154Z,16.85
2023-04-16T11:50:29.056Z,16.59
2023-04-16T11:53:53.324Z,16.82
2023-04-16T11:56:55.325Z,16.88
2023-04-16T12:00:11.145Z,16.71
2023-04-16T12:03:13.349Z,16.78
2023-04-16T12:06:35.156Z,16.96
2023-04-16T12:13:42.108Z,17.22
2023-04-16T12:16:57.231Z,17.44
2023-04-16T12:20:10.561Z,17.54
2023-04-16T12:23:37.165Z,17.33
2023-04-16T12:27:00.148Z,17.38
2023-04-16T12:30:16.112Z,17.21
2023-04-16T12:33:19.055Z,17.19
2023-04-16T12:36:34.134Z,17.33
2023-04-16T12:39:42.950Z,17.15
2023-04-16T12:42:58.194Z,17.19
2023-04-16T12:46:06.165Z,17.33
2023-04-16T12:49:14.978Z,17.38
2023-04-16T12:52:31.143Z,17.35
2023-04-16T12:55:46.142Z,17.20
2023-04-16T12:59:01.163Z,17.13
2023-04-16T13:02:16.317Z,17.27
2023-04-16T13:05:38.123Z,17.49
2023-04-16T13:08:53.132Z,17.71
2023-04-16T13:12:01.846Z,18.08
2023-04-16T13:15:18.227Z,18.27
2023-04-16T13:18:34.129Z,18.05
2023-04-16T13:21:43.208Z,17.78
2023-04-16T13:24:58.159Z,17.68
2023-04-16T13:28:00.358Z,17.65
2023-04-16T13:31:15.569Z,17.49
2023-04-16T13:34:23.928Z,17.43
2023-04-16T13:37:32.191Z,17.33
2023-04-16T13:44:44.397Z,17.29
2023-04-16T13:47:52.780Z,17.55
2023-04-16T13:51:07.459Z,18.18
2023-04-16T13:54:16.164Z,17.95
2023-04-16T13:57:25.154Z,18.22
2023-04-16T14:00:40.494Z,18.18
2023-04-16T14:03:49.658Z,17.78
2023-04-16T14:06:58.168Z,17.76
2023-04-16T14:10:14.125Z,17.54
2023-04-16T14:13:30.594Z,17.45
2023-04-16T14:16:39.190Z,17.36
2023-04-16T14:19:48.129Z,17.38
2023-04-16T14:22:56.173Z,17.32
2023-04-16T14:30:14.607Z,17.22
2023-04-16T14:33:29.185Z,17.14
2023-04-16T14:36:44.173Z,17.08
2023-04-16T14:39:59.156Z,16.97
2023-04-16T14:43:17.419Z,17.00
2023-04-16T14:46:25.760Z,17.13
2023-04-16T14:49:41.163Z,17.26
2023-04-16T14:52:50.166Z,17.40
2023-04-16T14:56:06.168Z,17.45
2023-04-16T14:59:14.830Z,17.32
2023-04-16T15:06:14.214Z,17.02
2023-04-16T15:09:33.862Z,17.01
2023-04-16T15:12:56.933Z,17.29
2023-04-16T15:16:12.140Z,17.53
2023-04-16T15:19:20.183Z,17.74
2023-04-16T15:22:35.584Z,17.79
2023-04-16T15:25:43.838Z,17.57
2023-04-16T15:28:58.188Z,17.46
2023-04-16T15:32:07.143Z,17.43
2023-04-16T15:35:17.796Z,17.36
2023-04-16T15:42:25.420Z,17.44
2023-04-16T15:45:42.982Z,17.34
2023-04-16T15:48:45.064Z,17.33
2023-04-16T15:55:54.929Z,17.41
2023-04-16T15:59:05.442Z,17.44
2023-04-16T16:02:22.841Z,17.28
2023-04-16T16:05:38.317Z,17.18
2023-04-16T16:08:47.466Z,17.10
2023-04-16T16:12:04.657Z,16.90
2023-04-16T16:19:19.007Z,16.68
2023-04-16T16:26:25.649Z,16.47
2023-04-16T16:29:40.530Z,16.45
2023-04-16T16:32:55.681Z,16.43
2023-04-16T16:36:04.479Z,16.42
2023-04-16T16:39:13.566Z,16.42
2023-04-16T16:42:22.198Z,16.41
2023-04-16T16:45:37.621Z,16.41
2023-04-16T16:52:51.184Z,16.36
2023-04-16T16:56:07.644Z,16.36
2023-04-16T16:59:23.117Z,16.29
2023-04-16T17:02:41.338Z,16.20
2023-04-16T17:05:49.969Z,16.24
2023-04-16T17:09:05.368Z,16.20
2023-04-16T17:12:20.578Z,16.19
2023-04-16T17:15:29.206Z,16.11
2023-04-16T17:18:38.654Z,16.09
2023-04-16T17:21:48.087Z,16.04
2023-04-16T17:24:57.679Z,15.99
2023-04-16T17:28:06.285Z,15.97
2023-04-16T17:31:15.635Z,15.89
2023-04-16T17:35:08.689Z,15.82
2023-04-16T17:38:10.820Z,15.75
2023-04-16T17:41:25.708Z,15.68
2023-04-16T17:44:28.214Z,15.68
2023-04-16T17:47:45.259Z,15.55
2023-04-16T17:50:48.791Z,15.62
2023-04-16T17:54:05.164Z,15.55
2023-04-16T17:57:21.697Z,15.50
2023-04-16T18:00:37.480Z,15.44
2023-04-16T18:03:40.861Z,15.30
2023-04-16T18:06:56.640Z,15.22
2023-04-16T18:10:13.921Z,15.15
2023-04-16T18:13:24.587Z,15.08
2023-04-16T18:16:33.715Z,14.95
2023-04-16T18:19:49.530Z,14.93
2023-04-16T18:22:52.023Z,14.76
2023-04-16T18:26:08.519Z,14.68
2023-04-16T18:29:18.292Z,14.70
2023-04-16T18:32:34.651Z,14.67
2023-04-16T18:35:45.666Z,14.62
2023-04-16T18:39:02.494Z,14.59
2023-04-16T18:42:18.634Z,14.57
2023-04-16T18:45:28.322Z,14.55
2023-04-16T18:48:43.641Z,14.52
2023-04-16T18:51:52.542Z,14.49
2023-04-16T18:55:07.716Z,14.39
2023-04-16T18:58:16.609Z,14.45
2023-04-16T19:01:25.742Z,14.47
2023-04-16T19:04:42.272Z,14.45
2023-04-16T19:07:51.727Z,14.44
2023-04-16T19:11:06.918Z,14.43
2023-04-16T19:14:15.667Z,14.46
2023-04-16T19:17:24.514Z,14.47
2023-04-16T19:20:33.730Z,14.46
2023-04-16T19:23:48.683Z,14.46
2023-04-16T19:26:57.539Z,14.45
2023-04-16T19:30:07.348Z,14.44
2023-04-16T19:33:16.472Z,14.42
2023-04-16T19:36:26.755Z,14.34
2023-04-16T19:39:41.721Z,14.36
2023-04-16T19:42:50.713Z,14.30
2023-04-16T19:46:01.227Z,14.25
2023-04-16T19:49:16.596Z,14.18
2023-04-16T19:52:20.604Z,13.91
2023-04-16T19:55:35.632Z,14.18
2023-04-16T19:58:38.522Z,14.11
2023-04-16T20:01:54.678Z,14.02
2023-04-16T20:05:09.615Z,14.10
2023-04-16T20:08:24.596Z,14.05
2023-04-16T20:11:39.595Z,14.07
2023-04-16T20:14:49.156Z,14.04
2023-04-16T20:17:58.720Z,14.04
2023-04-16T20:21:15.643Z,14.04
2023-04-16T20:24:24.207Z,14.03
2023-04-16T20:27:40.457Z,14.01
2023-04-16T20:30:42.448Z,14.01
2023-04-16T20:33:57.261Z,14.04
2023-04-16T20:37:06.617Z,14.03
2023-04-16T20:40:21.199Z,14.02
2023-04-16T20:43:29.277Z,13.99
2023-04-16T20:46:44.263Z,13.98
2023-04-16T20:49:49.108Z,13.91
2023-04-16T20:53:04.205Z,14.01
2023-04-16T20:56:19.296Z,13.94
2023-04-16T20:59:27.193Z,13.92
2023-04-16T21:02:43.301Z,13.93
2023-04-16T21:05:59.185Z,13.90
2023-04-16T21:09:10.952Z,13.91
2023-04-16T21:12:26.216Z,13.90
2023-04-16T21:15:31.073Z,13.87
2023-04-16T21:18:46.245Z,13.86
2023-04-16T21:21:48.570Z,13.88
2023-04-16T21:25:05.208Z,13.79
2023-04-16T21:28:13.188Z,13.81
2023-04-16T21:31:28.248Z,13.80
2023-04-16T21:34:30.218Z,13.81
2023-04-16T21:37:45.216Z,13.81
2023-04-16T21:40:53.885Z,13.78
2023-04-16T21:44:09.189Z,13.75
2023-04-16T21:47:11.023Z,13.72
2023-04-16T21:50:26.219Z,13.70
2023-04-16T21:53:34.211Z,13.69
2023-04-16T21:56:42.802Z,13.64
2023-04-16T21:59:57.234Z,13.56
2023-04-16T22:03:07.036Z,13.59
2023-04-16T22:06:22.174Z,13.53
2023-04-16T22:09:40.373Z,13.53
2023-04-16T22:12:49.218Z,13.51
2023-04-16T22:16:05.291Z,13.47
2023-04-16T22:19:13.325Z,13.45
2023-04-16T22:22:28.222Z,13.44
2023-04-16T22:25:36.839Z,13.42
2023-04-16T22:28:51.197Z,13.38
2023-04-16T22:31:53.303Z,13.37
2023-04-16T22:35:08.203Z,13.37
2023-04-16T22:38:17.204Z,13.36
2023-04-16T22:41:32.205Z,13.35
2023-04-16T22:44:47.207Z,13.32
2023-04-16T22:47:49.140Z,13.33
2023-04-16T22:51:05.203Z,13.31
2023-04-16T22:54:14.054Z,13.22
2023-04-16T22:57:29.350Z,13.31
2023-04-16T23:00:38.172Z,13.32
2023-04-16T23:03:46.924Z,13.19
2023-04-16T23:06:55.201Z,13.36
2023-04-16T23:10:10.760Z,13.34
2023-04-16T23:13:20.239Z,13.34
2023-04-16T23:16:28.941Z,13.34
2023-04-16T23:19:44.203Z,13.32
2023-04-16T23:22:59.211Z,13.32
2023-04-16T23:26:07.861Z,13.30
2023-04-16T23:29:16.192Z,13.33
2023-04-16T23:32:31.273Z,13.30
2023-04-16T23:35:46.223Z,13.28
2023-04-16T23:38:55.206Z,13.26
2023-04-16T23:42:03.302Z,13.27
2023-04-16T23:45:18.263Z,13.24
2023-04-16T23:48:33.206Z,13.22
2023-04-16T23:51:35.909Z,13.20
2023-04-16T23:54:51.260Z,13.16
2023-04-16T23:57:53.225Z,13.23
